ジョージタウン の空港の天気 - METARとTAF

チェディ・ジェーガン国際空港 ( SYCJ / GEO ) - ガイアナ ジョージタウン
飛行場実況気象(Metar)
観測時間05/17 13:00 GYT (05/17 17:00 UTC)
風向・風速東北東 5m/s
視程10km以上
天気現象
少しの雲 雲底高度 610m
全天の4割程度の雲 雲底高度 640m
気温31℃
湿度66%
気圧1012hPa
METARSYCJ 171700Z 07010KT 050V110 9999 FEW020CB SCT021 31/24 Q1012 NOSIG RMK CB NE,ENE & S-W
過去の天気等 Google飛行場航空写真 Wunderground天気予報

過去48時間のMETAR

飛行場予報(TAF)
発表時間: 5/17 07:00 GYT (5/17 11:00 UTC)
予報対象時間: 17日8時 GYT ~ 18日8時 GYT
風向・風速東北東 5m/s
視程8000m
天気現象しゅう雨 周辺でしゅう雨
全天の8割程度の雲 雲底高度 520m
全天の4割程度の雲 雲底高度 1160m
17日11時 GYT ~ 17日13時 GYT に徐々に
視程10km以上
全天の8割程度の雲 雲底高度 610m
17日20時 GYT ~ 17日23時 GYT に徐々に
風向・風速北東 3m/s
視程8000m
天気現象雷 しゅう雨
少しの積乱雲 雲底高度 460m
全天の8割程度の雲 雲底高度 520m
全天の8割程度の雲 雲底高度 1160m
TAF SYCJ 171100Z 1712/1812 06010KT 8000 SHRA VCSH BKN017 SCT038
BECMG 1715/1717 9999 BKN020
BECMG 1800/1803 05006KT 8000 TS SHRA FEW015CB BKN017 BKN038